sensor_id;sensor_type;location;lat;lon;timestamp;temperature;humidity
68609;SHT31;55581;46.718;7.690;2023-03-31T00:00:51;10.40;79.75
68609;SHT31;55581;46.718;7.690;2023-03-31T00:03:17;10.30;80.46
68609;SHT31;55581;46.718;7.690;2023-03-31T00:05:46;10.32;80.08
68609;SHT31;55581;46.718;7.690;2023-03-31T00:08:13;10.30;80.17
68609;SHT31;55581;46.718;7.690;2023-03-31T00:10:44;10.36;80.04
68609;SHT31;55581;46.718;7.690;2023-03-31T00:13:11;10.29;80.22
68609;SHT31;55581;46.718;7.690;2023-03-31T00:15:37;10.28;80.22
68609;SHT31;55581;46.718;7.690;2023-03-31T00:18:02;10.30;80.31
68609;SHT31;55581;46.718;7.690;2023-03-31T00:20:28;10.30;80.52
68609;SHT31;55581;46.718;7.690;2023-03-31T00:22:56;10.16;81.09
68609;SHT31;55581;46.718;7.690;2023-03-31T00:25:22;10.16;80.93
68609;SHT31;55581;46.718;7.690;2023-03-31T00:27:50;10.19;80.50
68609;SHT31;55581;46.718;7.690;2023-03-31T00:30:17;10.28;79.93
68609;SHT31;55581;46.718;7.690;2023-03-31T00:32:42;10.35;79.72
68609;SHT31;55581;46.718;7.690;2023-03-31T00:35:08;10.33;79.11
68609;SHT31;55581;46.718;7.690;2023-03-31T00:37:34;10.28;80.42
68609;SHT31;55581;46.718;7.690;2023-03-31T00:39:59;10.23;81.17
68609;SHT31;55581;46.718;7.690;2023-03-31T00:42:25;10.28;79.22
68609;SHT31;55581;46.718;7.690;2023-03-31T00:47:43;10.40;77.81
68609;SHT31;55581;46.718;7.690;2023-03-31T00:50:18;10.57;75.99
68609;SHT31;55581;46.718;7.690;2023-03-31T00:52:47;10.60;77.66
68609;SHT31;55581;46.718;7.690;2023-03-31T00:55:18;10.52;78.32
68609;SHT31;55581;46.718;7.690;2023-03-31T00:57:47;10.47;78.34
68609;SHT31;55581;46.718;7.690;2023-03-31T01:00:13;10.52;76.82
68609;SHT31;55581;46.718;7.690;2023-03-31T01:02:44;10.50;77.43
68609;SHT31;55581;46.718;7.690;2023-03-31T01:07:58;10.42;77.99
68609;SHT31;55581;46.718;7.690;2023-03-31T01:10:28;10.36;78.45
68609;SHT31;55581;46.718;7.690;2023-03-31T01:12:56;10.45;76.99
68609;SHT31;55581;46.718;7.690;2023-03-31T01:15:24;10.50;77.22
68609;SHT31;55581;46.718;7.690;2023-03-31T01:17:51;10.43;77.74
68609;SHT31;55581;46.718;7.690;2023-03-31T01:31:25;10.29;79.14
68609;SHT31;55581;46.718;7.690;2023-03-31T01:40:28;10.05;80.91
68609;SHT31;55581;46.718;7.690;2023-03-31T01:45:57;10.02;80.32
68609;SHT31;55581;46.718;7.690;2023-03-31T01:51:11;9.97;81.12
68609;SHT31;55581;46.718;7.690;2023-03-31T01:54:02;9.90;81.63
68609;SHT31;55581;46.718;7.690;2023-03-31T01:56:45;9.90;81.10
68609;SHT31;55581;46.718;7.690;2023-03-31T01:59:19;9.95;80.37
68609;SHT31;55581;46.718;7.690;2023-03-31T02:02:04;9.98;80.83
68609;SHT31;55581;46.718;7.690;2023-03-31T02:04:39;9.94;80.58
68609;SHT31;55581;46.718;7.690;2023-03-31T02:07:16;9.97;81.18
68609;SHT31;55581;46.718;7.690;2023-03-31T02:09:49;10.01;81.12
68609;SHT31;55581;46.718;7.690;2023-03-31T02:12:20;10.08;79.93
68609;SHT31;55581;46.718;7.690;2023-03-31T02:14:49;10.18;79.58
68609;SHT31;55581;46.718;7.690;2023-03-31T02:17:18;10.25;79.47
68609;SHT31;55581;46.718;7.690;2023-03-31T02:19:49;10.15;80.64
68609;SHT31;55581;46.718;7.690;2023-03-31T02:22:18;10.13;80.85
68609;SHT31;55581;46.718;7.690;2023-03-31T02:24:45;10.06;81.40
68609;SHT31;55581;46.718;7.690;2023-03-31T02:27:30;9.98;82.48
68609;SHT31;55581;46.718;7.690;2023-03-31T02:29:57;9.90;83.46
68609;SHT31;55581;46.718;7.690;2023-03-31T02:34:57;9.97;79.87
68609;SHT31;55581;46.718;7.690;2023-03-31T02:37:23;9.90;83.18
68609;SHT31;55581;46.718;7.690;2023-03-31T02:39:51;9.75;82.60
68609;SHT31;55581;46.718;7.690;2023-03-31T02:42:18;9.75;81.23
68609;SHT31;55581;46.718;7.690;2023-03-31T02:44:44;9.80;82.06
68609;SHT31;55581;46.718;7.690;2023-03-31T02:47:12;9.91;73.38
68609;SHT31;55581;46.718;7.690;2023-03-31T02:49:41;10.16;78.47
68609;SHT31;55581;46.718;7.690;2023-03-31T03:05:40;9.99;78.48
68609;SHT31;55581;46.718;7.690;2023-03-31T03:10:42;10.52;67.85
68609;SHT31;55581;46.718;7.690;2023-03-31T03:15:52;11.29;67.44
68609;SHT31;55581;46.718;7.690;2023-03-31T03:18:20;11.73;60.49
68609;SHT31;55581;46.718;7.690;2023-03-31T03:20:45;12.04;59.77
68609;SHT31;55581;46.718;7.690;2023-03-31T03:23:15;12.24;58.57
68609;SHT31;55581;46.718;7.690;2023-03-31T03:25:42;12.39;58.78
68609;SHT31;55581;46.718;7.690;2023-03-31T03:28:08;12.48;57.47
68609;SHT31;55581;46.718;7.690;2023-03-31T03:30:34;12.56;56.77
68609;SHT31;55581;46.718;7.690;2023-03-31T03:32:59;12.66;55.90
68609;SHT31;55581;46.718;7.690;2023-03-31T03:35:24;12.67;55.88
68609;SHT31;55581;46.718;7.690;2023-03-31T03:37:50;12.75;57.97
68609;SHT31;55581;46.718;7.690;2023-03-31T03:40:16;12.24;65.06
68609;SHT31;55581;46.718;7.690;2023-03-31T03:42:42;12.32;58.02
68609;SHT31;55581;46.718;7.690;2023-03-31T03:45:07;12.17;65.57
68609;SHT31;55581;46.718;7.690;2023-03-31T03:47:33;12.01;64.40
68609;SHT31;55581;46.718;7.690;2023-03-31T03:49:58;11.97;61.36
68609;SHT31;55581;46.718;7.690;2023-03-31T03:52:26;12.17;58.71
68609;SHT31;55581;46.718;7.690;2023-03-31T03:54:51;12.29;59.61
68609;SHT31;55581;46.718;7.690;2023-03-31T03:57:19;12.33;60.21
68609;SHT31;55581;46.718;7.690;2023-03-31T03:59:45;12.36;61.38
68609;SHT31;55581;46.718;7.690;2023-03-31T04:02:10;12.26;63.40
68609;SHT31;55581;46.718;7.690;2023-03-31T04:04:35;12.29;62.03
68609;SHT31;55581;46.718;7.690;2023-03-31T04:07:01;12.26;61.64
68609;SHT31;55581;46.718;7.690;2023-03-31T04:09:26;12.20;64.06
68609;SHT31;55581;46.718;7.690;2023-03-31T04:11:55;12.02;67.98
68609;SHT31;55581;46.718;7.690;2023-03-31T04:14:20;11.97;62.93
68609;SHT31;55581;46.718;7.690;2023-03-31T04:16:46;11.99;62.21
68609;SHT31;55581;46.718;7.690;2023-03-31T04:19:13;11.98;65.04
68609;SHT31;55581;46.718;7.690;2023-03-31T04:21:42;11.88;68.05
68609;SHT31;55581;46.718;7.690;2023-03-31T04:24:10;11.52;71.03
68609;SHT31;55581;46.718;7.690;2023-03-31T04:26:40;11.15;68.40
68609;SHT31;55581;46.718;7.690;2023-03-31T04:29:15;11.02;69.15
68609;SHT31;55581;46.718;7.690;2023-03-31T04:31:42;11.21;66.97
68609;SHT31;55581;46.718;7.690;2023-03-31T04:34:09;11.36;67.32
68609;SHT31;55581;46.718;7.690;2023-03-31T04:36:43;11.47;65.67
68609;SHT31;55581;46.718;7.690;2023-03-31T04:39:12;11.42;70.10
68609;SHT31;55581;46.718;7.690;2023-03-31T04:41:38;10.92;73.96
68609;SHT31;55581;46.718;7.690;2023-03-31T04:44:04;10.53;75.61
68609;SHT31;55581;46.718;7.690;2023-03-31T04:46:30;10.23;77.59
68609;SHT31;55581;46.718;7.690;2023-03-31T04:48:58;10.03;77.47
68609;SHT31;55581;46.718;7.690;2023-03-31T04:51:23;9.99;78.11
68609;SHT31;55581;46.718;7.690;2023-03-31T04:53:49;9.88;78.97
68609;SHT31;55581;46.718;7.690;2023-03-31T04:56:14;9.94;77.84
68609;SHT31;55581;46.718;7.690;2023-03-31T04:58:41;9.85;78.98
68609;SHT31;55581;46.718;7.690;2023-03-31T05:01:06;9.75;79.16
68609;SHT31;55581;46.718;7.690;2023-03-31T05:03:35;9.71;79.69
68609;SHT31;55581;46.718;7.690;2023-03-31T05:06:00;9.69;78.88
68609;SHT31;55581;46.718;7.690;2023-03-31T05:08:28;9.65;79.00
68609;SHT31;55581;46.718;7.690;2023-03-31T05:10:53;9.71;78.56
68609;SHT31;55581;46.718;7.690;2023-03-31T05:13:19;9.69;79.02
68609;SHT31;55581;46.718;7.690;2023-03-31T05:15:47;9.75;77.80
68609;SHT31;55581;46.718;7.690;2023-03-31T05:18:15;9.90;75.91
68609;SHT31;55581;46.718;7.690;2023-03-31T05:20:43;9.90;76.35
68609;SHT31;55581;46.718;7.690;2023-03-31T05:23:08;9.98;75.57
68609;SHT31;55581;46.718;7.690;2023-03-31T05:25:34;10.03;77.04
68609;SHT31;55581;46.718;7.690;2023-03-31T05:28:00;10.05;76.89
68609;SHT31;55581;46.718;7.690;2023-03-31T05:30:26;10.11;76.49
68609;SHT31;55581;46.718;7.690;2023-03-31T05:32:52;10.12;76.93
68609;SHT31;55581;46.718;7.690;2023-03-31T05:35:18;10.39;67.89
68609;SHT31;55581;46.718;7.690;2023-03-31T05:37:43;10.70;72.90
68609;SHT31;55581;46.718;7.690;2023-03-31T05:40:09;10.64;73.71
68609;SHT31;55581;46.718;7.690;2023-03-31T05:42:36;10.61;72.62
68609;SHT31;55581;46.718;7.690;2023-03-31T05:45:02;10.52;74.58
68609;SHT31;55581;46.718;7.690;2023-03-31T05:47:28;10.37;75.41
68609;SHT31;55581;46.718;7.690;2023-03-31T05:49:54;10.32;75.47
68609;SHT31;55581;46.718;7.690;2023-03-31T05:52:19;10.22;76.84
68609;SHT31;55581;46.718;7.690;2023-03-31T05:54:47;10.09;77.53
68609;SHT31;55581;46.718;7.690;2023-03-31T05:57:12;10.13;76.06
68609;SHT31;55581;46.718;7.690;2023-03-31T05:59:38;10.13;78.09
68609;SHT31;55581;46.718;7.690;2023-03-31T06:02:05;10.23;74.82
68609;SHT31;55581;46.718;7.690;2023-03-31T06:04:30;10.22;76.57
68609;SHT31;55581;46.718;7.690;2023-03-31T06:06:57;10.46;74.68
68609;SHT31;55581;46.718;7.690;2023-03-31T06:09:23;10.90;68.42
68609;SHT31;55581;46.718;7.690;2023-03-31T06:11:49;11.88;65.19
68609;SHT31;55581;46.718;7.690;2023-03-31T06:14:14;12.20;64.34
68609;SHT31;55581;46.718;7.690;2023-03-31T06:16:39;12.42;60.89
68609;SHT31;55581;46.718;7.690;2023-03-31T06:19:05;12.55;62.79
68609;SHT31;55581;46.718;7.690;2023-03-31T06:21:31;13.18;59.46
68609;SHT31;55581;46.718;7.690;2023-03-31T06:23:56;13.55;57.23
68609;SHT31;55581;46.718;7.690;2023-03-31T06:26:22;13.69;56.60
68609;SHT31;55581;46.718;7.690;2023-03-31T06:28:48;13.49;60.20
68609;SHT31;55581;46.718;7.690;2023-03-31T06:31:19;13.31;58.85
68609;SHT31;55581;46.718;7.690;2023-03-31T06:33:45;13.42;57.15
68609;SHT31;55581;46.718;7.690;2023-03-31T06:36:12;13.59;56.51
68609;SHT31;55581;46.718;7.690;2023-03-31T06:38:38;13.59;59.27
68609;SHT31;55581;46.718;7.690;2023-03-31T06:41:04;13.39;62.62
68609;SHT31;55581;46.718;7.690;2023-03-31T06:43:30;12.97;61.07
68609;SHT31;55581;46.718;7.690;2023-03-31T06:45:56;12.98;59.96
68609;SHT31;55581;46.718;7.690;2023-03-31T06:48:25;12.69;66.58
68609;SHT31;55581;46.718;7.690;2023-03-31T06:50:52;12.32;67.99
68609;SHT31;55581;46.718;7.690;2023-03-31T06:53:18;11.99;70.39
68609;SHT31;55581;46.718;7.690;2023-03-31T06:55:43;11.60;72.93
68609;SHT31;55581;46.718;7.690;2023-03-31T06:58:09;11.42;73.74
68609;SHT31;55581;46.718;7.690;2023-03-31T07:00:37;11.55;72.32
68609;SHT31;55581;46.718;7.690;2023-03-31T07:03:03;11.80;74.36
68609;SHT31;55581;46.718;7.690;2023-03-31T07:05:29;11.97;73.74
68609;SHT31;55581;46.718;7.690;2023-03-31T07:07:56;12.24;72.54
68609;SHT31;55581;46.718;7.690;2023-03-31T07:10:23;12.40;71.55
68609;SHT31;55581;46.718;7.690;2023-03-31T07:12:49;12.32;74.29
68609;SHT31;55581;46.718;7.690;2023-03-31T07:15:15;12.33;72.18
68609;SHT31;55581;46.718;7.690;2023-03-31T07:17:40;12.24;74.54
68609;SHT31;55581;46.718;7.690;2023-03-31T07:20:10;12.25;72.10
68609;SHT31;55581;46.718;7.690;2023-03-31T07:22:43;12.39;70.52
68609;SHT31;55581;46.718;7.690;2023-03-31T07:25:10;12.56;69.61
68609;SHT31;55581;46.718;7.690;2023-03-31T07:27:36;12.63;69.11
68609;SHT31;55581;46.718;7.690;2023-03-31T07:30:04;12.59;67.50
68609;SHT31;55581;46.718;7.690;2023-03-31T07:32:29;12.40;68.39
68609;SHT31;55581;46.718;7.690;2023-03-31T07:34:57;12.32;69.72
68609;SHT31;55581;46.718;7.690;2023-03-31T07:37:23;12.21;69.70
68609;SHT31;55581;46.718;7.690;2023-03-31T07:39:48;12.10;73.00
68609;SHT31;55581;46.718;7.690;2023-03-31T07:42:13;12.02;72.49
68609;SHT31;55581;46.718;7.690;2023-03-31T07:44:39;11.91;73.66
68609;SHT31;55581;46.718;7.690;2023-03-31T07:47:07;11.74;79.00
68609;SHT31;55581;46.718;7.690;2023-03-31T07:49:33;11.76;73.54
68609;SHT31;55581;46.718;7.690;2023-03-31T07:51:59;11.90;73.21
68609;SHT31;55581;46.718;7.690;2023-03-31T07:54:24;11.81;75.74
68609;SHT31;55581;46.718;7.690;2023-03-31T07:56:50;11.55;82.69
68609;SHT31;55581;46.718;7.690;2023-03-31T07:59:16;11.65;79.31
68609;SHT31;55581;46.718;7.690;2023-03-31T08:01:44;11.56;78.71
68609;SHT31;55581;46.718;7.690;2023-03-31T08:04:12;11.59;79.42
68609;SHT31;55581;46.718;7.690;2023-03-31T08:06:39;11.47;80.44
68609;SHT31;55581;46.718;7.690;2023-03-31T08:09:05;11.60;76.20
68609;SHT31;55581;46.718;7.690;2023-03-31T08:11:34;11.76;74.74
68609;SHT31;55581;46.718;7.690;2023-03-31T08:13:59;11.78;76.73
68609;SHT31;55581;46.718;7.690;2023-03-31T08:16:25;11.81;74.55
68609;SHT31;55581;46.718;7.690;2023-03-31T08:18:50;11.95;76.72
68609;SHT31;55581;46.718;7.690;2023-03-31T08:21:16;12.06;74.73
68609;SHT31;55581;46.718;7.690;2023-03-31T08:23:41;12.12;73.20
68609;SHT31;55581;46.718;7.690;2023-03-31T08:26:09;12.14;73.72
68609;SHT31;55581;46.718;7.690;2023-03-31T08:28:35;12.18;73.11
68609;SHT31;55581;46.718;7.690;2023-03-31T08:31:07;12.14;73.41
68609;SHT31;55581;46.718;7.690;2023-03-31T08:33:33;12.20;71.58
68609;SHT31;55581;46.718;7.690;2023-03-31T08:36:04;12.31;73.05
68609;SHT31;55581;46.718;7.690;2023-03-31T08:38:33;12.45;70.25
68609;SHT31;55581;46.718;7.690;2023-03-31T08:41:01;12.52;70.70
68609;SHT31;55581;46.718;7.690;2023-03-31T08:43:33;12.61;68.77
68609;SHT31;55581;46.718;7.690;2023-03-31T08:46:02;12.63;68.44
68609;SHT31;55581;46.718;7.690;2023-03-31T08:48:41;12.60;69.87
68609;SHT31;55581;46.718;7.690;2023-03-31T08:51:18;12.46;68.37
68609;SHT31;55581;46.718;7.690;2023-03-31T08:53:59;12.33;70.49
68609;SHT31;55581;46.718;7.690;2023-03-31T08:56:27;12.36;69.71
68609;SHT31;55581;46.718;7.690;2023-03-31T08:58:54;12.42;72.28
68609;SHT31;55581;46.718;7.690;2023-03-31T09:01:39;12.33;72.28
68609;SHT31;55581;46.718;7.690;2023-03-31T09:06:56;12.08;70.81
68609;SHT31;55581;46.718;7.690;2023-03-31T09:12:16;11.99;72.80
68609;SHT31;55581;46.718;7.690;2023-03-31T09:22:18;11.93;72.25
68609;SHT31;55581;46.718;7.690;2023-03-31T09:27:25;11.84;73.66
68609;SHT31;55581;46.718;7.690;2023-03-31T09:32:25;11.98;64.83
68609;SHT31;55581;46.718;7.690;2023-03-31T09:34:59;12.08;66.81
68609;SHT31;55581;46.718;7.690;2023-03-31T09:37:29;12.31;63.37
68609;SHT31;55581;46.718;7.690;2023-03-31T09:39:59;12.36;63.59
68609;SHT31;55581;46.718;7.690;2023-03-31T09:42:27;12.55;64.48
68609;SHT31;55581;46.718;7.690;2023-03-31T09:44:53;12.60;64.40
68609;SHT31;55581;46.718;7.690;2023-03-31T09:47:34;12.64;64.19
68609;SHT31;55581;46.718;7.690;2023-03-31T09:50:04;12.64;66.32
68609;SHT31;55581;46.718;7.690;2023-03-31T09:52:32;12.70;64.77
68609;SHT31;55581;46.718;7.690;2023-03-31T09:57:53;13.34;62.51
68609;SHT31;55581;46.718;7.690;2023-03-31T10:00:21;13.52;63.48
68609;SHT31;55581;46.718;7.690;2023-03-31T10:02:52;13.51;56.71
68609;SHT31;55581;46.718;7.690;2023-03-31T10:05:32;13.41;62.32
68609;SHT31;55581;46.718;7.690;2023-03-31T10:08:26;13.16;70.73
68609;SHT31;55581;46.718;7.690;2023-03-31T10:18:53;12.38;75.37
68609;SHT31;55581;46.718;7.690;2023-03-31T10:21:22;12.39;69.30
68609;SHT31;55581;46.718;7.690;2023-03-31T10:23:51;12.52;68.55
68609;SHT31;55581;46.718;7.690;2023-03-31T10:26:23;12.55;66.13
68609;SHT31;55581;46.718;7.690;2023-03-31T10:28:53;12.75;65.14
68609;SHT31;55581;46.718;7.690;2023-03-31T10:31:25;12.95;62.29
68609;SHT31;55581;46.718;7.690;2023-03-31T10:33:51;13.19;55.31
68609;SHT31;55581;46.718;7.690;2023-03-31T10:36:25;13.53;56.57
68609;SHT31;55581;46.718;7.690;2023-03-31T10:38:52;13.48;60.71
68609;SHT31;55581;46.718;7.690;2023-03-31T10:41:37;13.59;66.13
68609;SHT31;55581;46.718;7.690;2023-03-31T10:44:03;13.51;68.68
68609;SHT31;55581;46.718;7.690;2023-03-31T10:46:46;13.67;55.71
68609;SHT31;55581;46.718;7.690;2023-03-31T10:49:36;13.77;58.50
68609;SHT31;55581;46.718;7.690;2023-03-31T10:52:02;13.87;61.62
68609;SHT31;55581;46.718;7.690;2023-03-31T10:54:33;13.98;66.50
68609;SHT31;55581;46.718;7.690;2023-03-31T10:57:00;13.93;62.55
68609;SHT31;55581;46.718;7.690;2023-03-31T11:13:18;14.01;54.75
68609;SHT31;55581;46.718;7.690;2023-03-31T11:35:19;14.04;49.54
68609;SHT31;55581;46.718;7.690;2023-03-31T11:42:56;13.56;50.43
68609;SHT31;55581;46.718;7.690;2023-03-31T11:45:27;13.43;51.32
68609;SHT31;55581;46.718;7.690;2023-03-31T11:47:59;13.36;51.04
68609;SHT31;55581;46.718;7.690;2023-03-31T11:50:31;13.31;50.59
68609;SHT31;55581;46.718;7.690;2023-03-31T11:53:14;13.34;50.03
68609;SHT31;55581;46.718;7.690;2023-03-31T11:55:41;13.32;50.14
68609;SHT31;55581;46.718;7.690;2023-03-31T11:58:22;13.42;46.68
68609;SHT31;55581;46.718;7.690;2023-03-31T12:06:31;13.25;48.32
68609;SHT31;55581;46.718;7.690;2023-03-31T12:09:12;13.08;51.65
68609;SHT31;55581;46.718;7.690;2023-03-31T12:14:39;12.43;54.02
68609;SHT31;55581;46.718;7.690;2023-03-31T12:17:17;12.42;53.93
68609;SHT31;55581;46.718;7.690;2023-03-31T12:19:53;12.53;54.69
68609;SHT31;55581;46.718;7.690;2023-03-31T12:22:24;12.72;51.68
68609;SHT31;55581;46.718;7.690;2023-03-31T12:24:51;12.83;52.03
68609;SHT31;55581;46.718;7.690;2023-03-31T12:27:20;12.57;56.01
68609;SHT31;55581;46.718;7.690;2023-03-31T12:30:00;12.17;58.80
68609;SHT31;55581;46.718;7.690;2023-03-31T12:32:32;11.66;61.97
68609;SHT31;55581;46.718;7.690;2023-03-31T12:35:03;11.32;67.21
68609;SHT31;55581;46.718;7.690;2023-03-31T12:38:18;10.39;71.11
68609;SHT31;55581;46.718;7.690;2023-03-31T12:45:42;8.44;78.40
68609;SHT31;55581;46.718;7.690;2023-03-31T12:48:18;8.40;77.91
68609;SHT31;55581;46.718;7.690;2023-03-31T12:59:32;8.03;76.89
68609;SHT31;55581;46.718;7.690;2023-03-31T13:02:16;8.05;76.66
68609;SHT31;55581;46.718;7.690;2023-03-31T13:04:43;8.06;75.30
68609;SHT31;55581;46.718;7.690;2023-03-31T13:07:33;8.28;72.47
68609;SHT31;55581;46.718;7.690;2023-03-31T13:13:05;8.44;73.51
68609;SHT31;55581;46.718;7.690;2023-03-31T13:15:31;8.42;72.79
68609;SHT31;55581;46.718;7.690;2023-03-31T13:18:02;8.50;71.76
68609;SHT31;55581;46.718;7.690;2023-03-31T13:20:36;8.67;70.90
68609;SHT31;55581;46.718;7.690;2023-03-31T13:23:19;8.74;73.95
68609;SHT31;55581;46.718;7.690;2023-03-31T13:25:56;8.81;75.85
68609;SHT31;55581;46.718;7.690;2023-03-31T13:39:32;9.50;79.51
68609;SHT31;55581;46.718;7.690;2023-03-31T13:41:52;9.77;76.92
68609;SHT31;55581;46.718;7.690;2023-03-31T13:44:35;10.01;74.76
68609;SHT31;55581;46.718;7.690;2023-03-31T13:55:59;11.59;72.40
68609;SHT31;55581;46.718;7.690;2023-03-31T14:09:35;12.59;67.50
68609;SHT31;55581;46.718;7.690;2023-03-31T14:12:21;12.76;65.49
68609;SHT31;55581;46.718;7.690;2023-03-31T14:14:47;12.90;64.53
68609;SHT31;55581;46.718;7.690;2023-03-31T14:17:16;13.12;62.20
68609;SHT31;55581;46.718;7.690;2023-03-31T14:25:42;13.15;60.35
68609;SHT31;55581;46.718;7.690;2023-03-31T14:28:37;12.67;64.09
68609;SHT31;55581;46.718;7.690;2023-03-31T14:39:05;11.04;73.30
68609;SHT31;55581;46.718;7.690;2023-03-31T14:41:38;10.66;74.20
68609;SHT31;55581;46.718;7.690;2023-03-31T14:44:11;10.61;72.43
68609;SHT31;55581;46.718;7.690;2023-03-31T14:46:38;10.39;72.68
68609;SHT31;55581;46.718;7.690;2023-03-31T14:51:53;10.30;73.73
68609;SHT31;55581;46.718;7.690;2023-03-31T14:54:19;10.28;73.17
68609;SHT31;55581;46.718;7.690;2023-03-31T14:56:52;10.35;72.89
68609;SHT31;55581;46.718;7.690;2023-03-31T14:59:25;10.37;72.96
68609;SHT31;55581;46.718;7.690;2023-03-31T15:01:52;10.40;73.46
68609;SHT31;55581;46.718;7.690;2023-03-31T15:04:22;10.29;73.56
68609;SHT31;55581;46.718;7.690;2023-03-31T15:06:49;10.13;74.69
68609;SHT31;55581;46.718;7.690;2023-03-31T15:09:28;10.06;73.43
68609;SHT31;55581;46.718;7.690;2023-03-31T15:12:02;10.12;71.66
68609;SHT31;55581;46.718;7.690;2023-03-31T15:14:34;10.13;69.84
68609;SHT31;55581;46.718;7.690;2023-03-31T15:17:00;10.16;71.51
68609;SHT31;55581;46.718;7.690;2023-03-31T15:19:28;9.58;75.17
68609;SHT31;55581;46.718;7.690;2023-03-31T15:22:00;8.97;75.55
68609;SHT31;55581;46.718;7.690;2023-03-31T15:24:27;8.64;81.36
68609;SHT31;55581;46.718;7.690;2023-03-31T15:27:02;8.54;82.13
68609;SHT31;55581;46.718;7.690;2023-03-31T15:29:51;8.47;83.33
68609;SHT31;55581;46.718;7.690;2023-03-31T15:34:50;8.33;83.79
68609;SHT31;55581;46.718;7.690;2023-03-31T15:37:38;8.28;83.03
68609;SHT31;55581;46.718;7.690;2023-03-31T15:40:14;8.33;84.79
68609;SHT31;55581;46.718;7.690;2023-03-31T15:42:42;8.32;83.64
68609;SHT31;55581;46.718;7.690;2023-03-31T15:47:33;8.54;81.55
68609;SHT31;55581;46.718;7.690;2023-03-31T15:52:36;8.59;79.09
68609;SHT31;55581;46.718;7.690;2023-03-31T15:57:50;8.77;78.52
68609;SHT31;55581;46.718;7.690;2023-03-31T16:00:42;8.91;74.14
68609;SHT31;55581;46.718;7.690;2023-03-31T16:03:22;8.84;77.80
68609;SHT31;55581;46.718;7.690;2023-03-31T16:05:52;8.87;79.62
68609;SHT31;55581;46.718;7.690;2023-03-31T16:08:43;8.81;77.61
68609;SHT31;55581;46.718;7.690;2023-03-31T16:11:14;8.75;78.86
68609;SHT31;55581;46.718;7.690;2023-03-31T16:13:46;8.84;78.82
68609;SHT31;55581;46.718;7.690;2023-03-31T16:16:14;8.87;77.22
68609;SHT31;55581;46.718;7.690;2023-03-31T16:18:46;8.87;76.77
68609;SHT31;55581;46.718;7.690;2023-03-31T16:21:22;8.84;76.46
68609;SHT31;55581;46.718;7.690;2023-03-31T16:23:51;8.72;77.32
68609;SHT31;55581;46.718;7.690;2023-03-31T16:26:24;8.65;77.06
68609;SHT31;55581;46.718;7.690;2023-03-31T16:28:53;8.56;77.22
68609;SHT31;55581;46.718;7.690;2023-03-31T16:33:59;8.56;77.93
68609;SHT31;55581;46.718;7.690;2023-03-31T16:36:25;8.68;74.26
68609;SHT31;55581;46.718;7.690;2023-03-31T16:38:51;8.80;72.29
68609;SHT31;55581;46.718;7.690;2023-03-31T16:41:18;8.91;70.79
68609;SHT31;55581;46.718;7.690;2023-03-31T16:43:44;9.01;74.96
68609;SHT31;55581;46.718;7.690;2023-03-31T16:46:10;9.02;70.92
68609;SHT31;55581;46.718;7.690;2023-03-31T16:48:35;8.97;72.67
68609;SHT31;55581;46.718;7.690;2023-03-31T16:51:01;9.12;70.86
68609;SHT31;55581;46.718;7.690;2023-03-31T16:53:30;9.18;72.00
68609;SHT31;55581;46.718;7.690;2023-03-31T16:55:56;9.14;72.73
68609;SHT31;55581;46.718;7.690;2023-03-31T16:58:22;9.04;76.02
68609;SHT31;55581;46.718;7.690;2023-03-31T17:00:51;8.75;78.35
68609;SHT31;55581;46.718;7.690;2023-03-31T17:03:17;8.60;79.42
68609;SHT31;55581;46.718;7.690;2023-03-31T17:05:48;8.37;80.03
68609;SHT31;55581;46.718;7.690;2023-03-31T17:08:15;8.34;79.96
68609;SHT31;55581;46.718;7.690;2023-03-31T17:11:10;8.29;79.32
68609;SHT31;55581;46.718;7.690;2023-03-31T17:13:39;8.39;75.56
68609;SHT31;55581;46.718;7.690;2023-03-31T17:16:06;8.46;76.76
68609;SHT31;55581;46.718;7.690;2023-03-31T17:18:32;8.47;74.67
68609;SHT31;55581;46.718;7.690;2023-03-31T17:21:11;8.63;71.79
68609;SHT31;55581;46.718;7.690;2023-03-31T17:23:37;8.80;74.42
68609;SHT31;55581;46.718;7.690;2023-03-31T17:26:04;8.85;74.31
68609;SHT31;55581;46.718;7.690;2023-03-31T17:28:31;8.81;76.94
68609;SHT31;55581;46.718;7.690;2023-03-31T17:30:57;8.74;76.53
68609;SHT31;55581;46.718;7.690;2023-03-31T17:33:22;8.60;78.31
68609;SHT31;55581;46.718;7.690;2023-03-31T17:35:48;8.46;78.93
68609;SHT31;55581;46.718;7.690;2023-03-31T17:38:15;8.29;79.02
68609;SHT31;55581;46.718;7.690;2023-03-31T17:40:43;8.21;79.62
68609;SHT31;55581;46.718;7.690;2023-03-31T17:43:09;8.13;79.92
68609;SHT31;55581;46.718;7.690;2023-03-31T17:45:35;8.09;79.86
68609;SHT31;55581;46.718;7.690;2023-03-31T17:48:01;8.15;80.61
68609;SHT31;55581;46.718;7.690;2023-03-31T17:50:26;8.10;79.64
68609;SHT31;55581;46.718;7.690;2023-03-31T17:52:52;8.02;82.63
68609;SHT31;55581;46.718;7.690;2023-03-31T17:55:20;8.01;82.25
68609;SHT31;55581;46.718;7.690;2023-03-31T17:57:45;8.05;82.11
68609;SHT31;55581;46.718;7.690;2023-03-31T18:00:11;8.03;81.16
68609;SHT31;55581;46.718;7.690;2023-03-31T18:02:40;8.01;83.42
68609;SHT31;55581;46.718;7.690;2023-03-31T18:05:08;8.08;82.72
68609;SHT31;55581;46.718;7.690;2023-03-31T18:07:34;8.05;79.72
68609;SHT31;55581;46.718;7.690;2023-03-31T18:10:01;8.13;77.14
68609;SHT31;55581;46.718;7.690;2023-03-31T18:12:29;8.16;78.69
68609;SHT31;55581;46.718;7.690;2023-03-31T18:14:55;8.17;79.44
68609;SHT31;55581;46.718;7.690;2023-03-31T18:17:20;8.13;80.86
68609;SHT31;55581;46.718;7.690;2023-03-31T18:19:46;8.12;81.69
68609;SHT31;55581;46.718;7.690;2023-03-31T18:22:11;8.01;82.48
68609;SHT31;55581;46.718;7.690;2023-03-31T18:24:37;7.95;85.12
68609;SHT31;55581;46.718;7.690;2023-03-31T18:27:05;7.97;85.92
68609;SHT31;55581;46.718;7.690;2023-03-31T18:29:31;7.97;87.14
68609;SHT31;55581;46.718;7.690;2023-03-31T18:31:57;8.02;84.74
68609;SHT31;55581;46.718;7.690;2023-03-31T18:34:22;8.05;84.11
68609;SHT31;55581;46.718;7.690;2023-03-31T18:36:48;8.12;84.35
68609;SHT31;55581;46.718;7.690;2023-03-31T18:39:14;8.12;81.26
68609;SHT31;55581;46.718;7.690;2023-03-31T18:41:43;8.16;79.07
68609;SHT31;55581;46.718;7.690;2023-03-31T18:44:09;8.13;80.62
68609;SHT31;55581;46.718;7.690;2023-03-31T18:46:37;8.12;80.90
68609;SHT31;55581;46.718;7.690;2023-03-31T18:49:03;8.08;81.20
68609;SHT31;55581;46.718;7.690;2023-03-31T18:51:28;8.02;82.37
68609;SHT31;55581;46.718;7.690;2023-03-31T18:53:54;8.02;80.04
68609;SHT31;55581;46.718;7.690;2023-03-31T18:56:19;7.89;84.68
68609;SHT31;55581;46.718;7.690;2023-03-31T18:58:47;7.78;85.38
68609;SHT31;55581;46.718;7.690;2023-03-31T19:01:15;7.71;80.94
68609;SHT31;55581;46.718;7.690;2023-03-31T19:03:41;7.70;80.56
68609;SHT31;55581;46.718;7.690;2023-03-31T19:06:09;7.71;83.61
68609;SHT31;55581;46.718;7.690;2023-03-31T19:08:35;7.56;85.86
68609;SHT31;55581;46.718;7.690;2023-03-31T19:11:14;7.32;87.80